Time;durP1;ratioP1;P1;durP2;ratioP2;P2;SDS_P1;SDS_P2;PMS_P1;PMS_P2;Temp;Humidity;BMP_temperature;BMP_pressure;BME280_temperature;BME280_humidity;BME280_pressure;Samples;Min_cycle;Max_cycle;Signal;HPM_P1;HPM_P2
2023/01/28 00:01:23;;;;;;;2.70;0.60;;;2.70;99.90;;;1.12;90.58;102434.19;4873345;28;20043;-85
2023/01/28 00:03:51;;;;;;;2.35;0.55;;;2.70;99.90;;;1.12;90.28;102429.88;4902821;28;20089;-84
2023/01/28 00:06:17;;;;;;;2.85;0.57;;;2.70;99.90;;;1.13;90.61;102428.19;4899472;28;20487;-83
2023/01/28 00:08:44;;;;;;;2.05;0.40;;;2.70;99.90;;;1.06;90.47;102431.47;4912926;28;20037;-85
2023/01/28 00:11:21;;;;;;;2.40;0.70;;;2.70;99.90;;;1.11;90.53;102435.06;4951859;28;20026;-85
2023/01/28 00:13:51;;;;;;;8.38;0.55;;;2.70;99.90;;;1.12;90.70;102434.19;4900095;28;20125;-83
2023/01/28 00:16:17;;;;;;;2.72;0.50;;;2.60;99.90;;;1.13;89.95;102428.19;4928394;28;20044;-83
2023/01/28 00:18:44;;;;;;;3.30;0.57;;;2.70;99.90;;;1.09;89.94;102427.22;4890206;28;20514;-85
2023/01/28 00:21:13;;;;;;;3.92;0.55;;;2.70;99.90;;;1.11;90.38;102427.28;4927701;28;20038;-84
2023/01/28 00:23:46;;;;;;;2.63;0.40;;;;;;;1.06;90.64;102428.88;4900593;28;20137;-83
2023/01/28 00:26:14;;;;;;;3.58;0.75;;;2.60;99.90;;;1.07;90.53;102420.28;4927580;28;20041;-86
2023/01/28 00:28:41;;;;;;;2.28;0.50;;;2.60;99.90;;;1.03;90.51;102420.19;4894357;28;20046;-85
2023/01/28 00:31:10;;;;;;;5.03;0.60;;;2.60;99.90;;;1.02;90.39;102413.28;4918054;28;20129;-83
2023/01/28 00:33:36;;;;;;;3.90;0.63;;;2.70;99.90;;;1.03;90.06;102420.19;4916017;28;20033;-83
2023/01/28 00:36:05;;;;;;;3.95;0.70;;;2.60;99.90;;;1.06;89.86;102413.31;4907016;28;20035;-84
2023/01/28 00:38:37;;;;;;;4.05;0.55;;;2.70;99.90;;;1.08;89.81;102414.22;4908011;28;20121;-85
2023/01/28 00:41:20;;;;;;;4.15;0.50;;;2.70;99.90;;;1.08;89.53;102414.22;4935893;28;20051;-83
2023/01/28 00:43:50;;;;;;;4.75;0.60;;;2.70;99.90;;;1.07;89.74;102415.09;4887949;28;20034;-83
2023/01/28 00:46:24;;;;;;;2.63;0.70;;;2.70;99.90;;;1.10;89.33;102415.13;4906948;28;20440;-83
2023/01/28 00:48:49;;;;;;;2.45;0.60;;;2.70;99.90;;;1.09;89.21;102424.63;4912257;28;20030;-85
2023/01/28 00:51:18;;;;;;;3.28;0.50;;;2.70;99.90;;;1.13;88.85;102417.81;4896302;28;20402;-83
2023/01/28 00:53:50;;;;;;;7.93;2.70;;;2.70;99.90;;;1.09;89.15;102413.41;4900407;28;20431;-85
2023/01/28 00:56:18;;;;;;;3.55;1.23;;;2.70;99.90;;;1.15;89.43;102413.53;4889367;28;20519;-83
2023/01/28 00:58:44;;;;;;;7.78;2.80;;;;;;;1.18;88.92;102421.34;4908649;28;20046;-83
2023/01/28 01:01:20;;;;;;;8.05;2.92;;;2.70;99.90;;;1.20;88.93;102417.94;4916308;28;20046;-83
2023/01/28 01:03:46;;;;;;;8.07;2.47;;;2.70;99.90;;;1.20;88.73;102415.34;4938631;28;20042;-82
2023/01/28 01:06:14;;;;;;;6.03;1.45;;;2.70;99.90;;;1.20;88.53;102414.47;4942476;28;21524;-85
2023/01/28 01:08:48;;;;;;;2.95;0.93;;;2.70;99.90;;;1.18;89.06;102418.75;4859141;28;20090;-84
2023/01/28 01:11:14;;;;;;;4.35;1.27;;;2.70;99.90;;;1.14;88.69;102420.41;4890027;28;20051;-84
2023/01/28 01:13:41;;;;;;;0.90;0.50;;;2.70;99.90;;;1.11;88.59;102427.28;4922325;28;20045;-84
2023/01/28 01:16:18;;;;;;;1.50;0.57;;;;;;;1.13;89.07;102425.59;4914767;28;20035;-84
2023/01/28 01:18:44;;;;;;;4.03;0.80;;;;;;;1.12;89.39;102421.22;4922912;28;20118;-83
2023/01/28 01:21:19;;;;;;;2.65;0.60;;;2.70;99.90;;;1.14;89.18;102419.53;4908836;28;20038;-84
2023/01/28 01:23:45;;;;;;;3.78;0.80;;;2.70;99.90;;;1.13;89.23;102421.25;4908540;28;20023;-83
2023/01/28 01:26:13;;;;;;;1.10;0.65;;;2.70;99.90;;;1.16;89.11;102415.25;4908350;28;20553;-83
2023/01/28 01:28:39;;;;;;;5.03;0.77;;;2.70;99.90;;;1.19;88.97;102420.53;4902752;28;20551;-84
2023/01/28 01:31:15;;;;;;;4.53;0.80;;;2.70;99.90;;;1.21;88.92;102422.28;4901176;28;20062;-83
2023/01/28 01:33:46;;;;;;;2.53;0.52;;;2.60;99.90;;;1.01;89.06;102426.19;4925321;28;20039;-85
2023/01/28 01:36:15;;;;;;;6.65;0.70;;;;;;;0.91;89.35;102425.16;4888198;28;20085;-83
2023/01/28 01:38:44;;;;;;;2.03;0.47;;;2.60;99.90;;;0.98;89.76;102418.38;4927760;28;20065;-85
2023/01/28 01:41:37;;;;;;;1.52;0.50;;;2.60;99.90;;;1.00;89.70;102414.97;4925954;28;20042;-83
2023/01/28 01:44:05;;;;;;;1.35;0.30;;;2.60;99.90;;;1.06;89.85;102418.50;4924810;28;20050;-85
2023/01/28 01:46:55;;;;;;;2.45;0.50;;;2.60;99.90;;;1.05;89.18;102402.06;4893232;28;20793;-85
2023/01/28 01:49:25;;;;;;;6.80;0.80;;;2.60;99.90;;;1.05;89.29;102403.81;4928557;28;20029;-84
2023/01/28 01:52:08;;;;;;;1.63;0.50;;;2.60;99.90;;;1.03;89.16;102406.34;4909501;28;20031;-84
2023/01/28 01:54:42;;;;;;;6.80;0.82;;;2.60;99.90;;;0.94;89.91;102404.47;4890753;28;20046;-85
2023/01/28 01:57:21;;;;;;;2.53;0.65;;;2.50;99.90;;;0.80;89.73;102406.78;4884125;28;20495;-82
2023/01/28 01:59:47;;;;;;;3.92;0.55;;;2.40;99.90;;;0.75;90.15;102399.75;4898488;28;20126;-83
2023/01/28 02:02:13;;;;;;;2.95;0.65;;;;;;;0.79;90.43;102398.97;4905985;28;20070;-84
2023/01/28 02:04:46;;;;;;;2.72;0.60;;;2.40;99.90;;;0.79;90.27;102393.78;4946008;28;20045;-82
2023/01/28 02:07:15;;;;;;;2.78;0.47;;;;;;;0.79;90.56;102396.38;4922086;28;20216;-84
2023/01/28 02:09:41;;;;;;;2.05;0.68;;;2.40;99.90;;;0.79;90.59;102396.38;4909546;28;20157;-84
2023/01/28 02:12:17;;;;;;;4.35;0.68;;;;;;;0.77;90.60;102398.91;4883590;28;20035;-83
2023/01/28 02:14:56;;;;;;;1.08;0.50;;;2.30;99.90;;;0.64;90.93;102402.09;4930512;28;20031;-83
2023/01/28 02:17:23;;;;;;;2.70;0.47;;;;;;;0.70;90.96;102403.97;4947052;28;20099;-83
2023/01/28 02:20:32;;;;;;;1.75;0.50;;;2.40;99.90;;;0.75;91.29;102410.09;4926819;28;20042;-83
2023/01/28 02:23:57;;;;;;;1.98;0.50;;;2.30;99.90;;;0.76;91.02;102398.91;4938211;28;20124;-82
2023/01/28 02:27:15;;;;;;;1.10;0.30;;;2.30;99.90;;;0.67;91.12;102399.59;4922947;28;20280;-84
2023/01/28 02:30:22;;;;;;;3.83;0.50;;;2.30;99.90;;;0.55;90.85;102404.50;4922686;28;20038;-85
2023/01/28 02:33:02;;;;;;;6.65;0.55;;;2.30;99.90;;;0.57;90.85;102414.06;4920280;28;20041;-83
2023/01/28 02:35:48;;;;;;;1.33;0.55;;;2.30;99.90;;;0.67;91.00;102404.78;4883409;28;20117;-82
2023/01/28 02:38:32;;;;;;;2.50;0.50;;;2.30;99.90;;;0.77;90.50;102403.25;4926830;28;20038;-84
2023/01/28 02:41:12;;;;;;;2.20;0.52;;;2.40;99.90;;;0.82;90.35;102399.00;4898986;28;20121;-82
2023/01/28 02:43:46;;;;;;;3.45;0.50;;;2.40;99.90;;;0.81;90.08;102394.69;4901587;28;20462;-83
2023/01/28 02:49:37;;;;;;;3.17;0.52;;;2.40;99.90;;;0.88;89.40;102399.13;4917615;28;20069;-84
2023/01/28 02:55:43;;;;;;;4.03;0.40;;;2.40;99.90;;;0.73;89.90;102398.81;4877698;28;20093;-84
2023/01/28 03:02:26;;;;;;;4.10;0.60;;;2.40;99.90;;;0.76;90.00;102388.53;4908479;28;20428;-84
2023/01/28 03:05:06;;;;;;;2.50;0.60;;;2.40;99.90;;;0.77;89.94;102385.09;4933756;28;20042;-85
2023/01/28 03:07:40;;;;;;;2.22;0.40;;;2.40;99.90;;;0.75;89.90;102392.81;4925310;28;20066;-85
2023/01/28 03:10:15;;;;;;;4.43;0.82;;;2.40;99.90;;;0.67;89.82;102397.00;4932191;28;20034;-82
2023/01/28 03:38:57;;;;;;;0.90;0.40;;;2.20;99.90;;;0.63;90.95;102373.53;4898974;28;20710;-82
2023/01/28 03:41:25;;;;;;;2.92;0.60;;;2.30;99.90;;;0.65;90.65;102375.34;4935065;28;20427;-84
2023/01/28 03:43:52;;;;;;;2.30;0.70;;;2.30;99.90;;;0.70;90.20;102388.41;4870315;28;20099;-85
2023/01/28 03:46:21;;;;;;;5.72;0.60;;;;;;;0.73;89.95;102384.13;4872915;28;21543;-82
2023/01/28 03:48:47;;;;;;;4.30;0.52;;;2.30;99.90;;;0.76;90.32;102383.34;4912796;28;20038;-83
2023/01/28 03:51:14;;;;;;;3.05;0.60;;;2.30;99.90;;;0.78;89.87;102392.03;4953858;28;20043;-85
2023/01/28 03:53:40;;;;;;;1.88;0.50;;;2.40;99.90;;;0.77;90.18;102383.38;4967383;28;20042;-83
2023/01/28 03:56:07;;;;;;;4.45;0.65;;;2.40;99.90;;;0.81;89.88;102381.72;4912550;28;20033;-83
2023/01/28 03:58:51;;;;;;;6.07;1.15;;;2.40;99.90;;;0.83;89.45;102387.81;4920325;28;20538;-85
2023/01/28 04:01:19;;;;;;;4.00;0.50;;;2.30;99.90;;;0.80;89.95;102385.16;4892899;28;20066;-83
2023/01/28 04:03:45;;;;;;;2.97;0.88;;;2.40;99.90;;;0.77;89.87;102380.75;4893428;28;20030;-84
2023/01/28 04:06:10;;;;;;;3.13;0.80;;;2.40;99.90;;;0.80;89.92;102386.03;4942733;28;20531;-83
2023/01/28 04:08:36;;;;;;;2.40;0.73;;;2.40;99.90;;;0.80;89.90;102388.63;4907180;28;20185;-81
2023/01/28 04:11:14;;;;;;;2.25;0.68;;;;;;;0.74;89.78;102380.72;4901462;28;20023;-85
2023/01/28 04:13:42;;;;;;;1.77;0.55;;;2.30;99.90;;;0.61;90.13;102379.59;4959053;28;20045;-83
2023/01/28 04:16:08;;;;;;;1.52;0.55;;;2.30;99.90;;;0.65;90.13;102380.53;4931289;28;20093;-82
2023/01/28 04:18:36;;;;;;;7.38;0.70;;;2.30;99.90;;;0.68;89.74;102374.53;4910459;28;20034;-83
2023/01/28 04:21:02;;;;;;;1.85;0.50;;;2.30;99.90;;;0.65;89.39;102372.75;4914795;28;20045;-85
2023/01/28 04:23:28;;;;;;;4.25;0.55;;;2.30;99.90;;;0.71;89.07;102379.78;4885756;28;20035;-83
2023/01/28 04:25:54;;;;;;;0.70;0.40;;;2.30;99.90;;;0.70;88.37;102385.81;4929003;28;20117;-82
2023/01/28 04:28:21;;;;;;;6.05;0.70;;;2.30;99.90;;;0.72;88.90;102378.94;4924234;28;20027;-85
2023/01/28 04:30:47;;;;;;;2.75;0.47;;;2.30;99.90;;;0.70;88.87;102383.22;4944810;28;20034;-83
2023/01/28 04:33:33;;;;;;;2.88;0.50;;;;;;;0.72;88.71;102382.41;4905530;28;20581;-85
2023/01/28 04:35:59;;;;;;;2.05;0.43;;;2.30;99.90;;;0.67;88.27;102389.22;4922756;28;20734;-83
2023/01/28 04:38:25;;;;;;;2.95;0.50;;;2.30;99.90;;;0.60;87.88;102385.63;4891624;28;20042;-83
2023/01/28 04:40:55;;;;;;;3.78;0.80;;;;;;;0.65;87.93;102390.91;4884414;28;20054;-84
2023/01/28 04:43:25;;;;;;;2.50;0.60;;;2.30;99.90;;;0.66;87.96;102397.81;4930800;28;20035;-84
2023/01/28 04:45:51;;;;;;;3.63;0.50;;;2.30;99.90;;;0.69;88.05;102387.53;4912659;28;20059;-84
2023/01/28 04:48:17;;;;;;;3.03;0.60;;;2.10;99.90;;;0.66;87.84;102386.59;4944715;28;20037;-82
2023/01/28 04:50:44;;;;;;;2.50;0.40;;;2.30;99.90;;;0.71;87.77;102388.41;4910093;28;20259;-85
2023/01/28 04:53:11;;;;;;;2.90;0.65;;;2.30;99.90;;;0.73;87.86;102386.72;4985284;28;20398;-84
2023/01/28 04:55:46;;;;;;;2.72;0.57;;;2.30;99.90;;;0.76;87.42;102385.94;4946696;28;20617;-83
2023/01/28 04:58:12;;;;;;;2.10;0.40;;;2.30;99.90;;;0.75;87.41;102386.78;4897971;28;20045;-85
2023/01/28 05:00:38;;;;;;;1.95;0.57;;;2.30;99.90;;;0.75;87.66;102390.22;4906092;28;20038;-83
2023/01/28 05:03:03;;;;;;;3.38;0.52;;;2.30;99.90;;;0.78;87.78;102392.03;4934780;28;20034;-83
2023/01/28 05:05:37;;;;;;;3.00;0.70;;;2.30;99.90;;;0.76;87.37;102380.75;4941866;28;20038;-85
2023/01/28 05:08:03;;;;;;;2.88;0.50;;;2.30;99.90;;;0.61;87.69;102376.13;4928430;28;20183;-83
2023/01/28 05:10:29;;;;;;;1.70;0.43;;;2.20;99.90;;;0.56;87.50;102376.03;4930985;28;20050;-83
2023/01/28 05:12:54;;;;;;;5.53;0.55;;;2.20;99.90;;;0.54;87.23;102382.00;4899121;28;20101;-82
2023/01/28 05:15:26;;;;;;;3.83;0.30;;;2.20;99.90;;;0.52;86.79;102381.09;4930514;28;20046;-84
2023/01/28 05:17:56;;;;;;;2.50;0.50;;;2.20;99.90;;;0.55;86.37;102376.00;4881376;28;20038;-84
2023/01/28 05:20:22;;;;;;;6.13;0.40;;;2.10;99.90;;;0.47;86.03;102375.81;4896677;28;20042;-84
2023/01/28 05:22:47;;;;;;;5.20;0.50;;;2.10;99.90;;;0.50;85.45;102383.69;4937653;28;20248;-82
2023/01/28 05:25:18;;;;;;;2.10;0.50;;;2.10;99.90;;;0.47;85.22;102373.22;4898951;28;20042;-84
2023/01/28 05:27:50;;;;;;;1.33;0.40;;;2.10;99.90;;;0.51;84.90;102380.22;4947214;28;20415;-84
2023/01/28 05:30:25;;;;;;;3.33;0.40;;;2.10;99.90;;;0.52;84.79;102376.81;4908092;28;21024;-82
2023/01/28 05:32:55;;;;;;;3.38;0.70;;;2.10;99.90;;;0.45;84.05;102369.72;4952487;28;20034;-84
2023/01/28 05:35:28;;;;;;;1.65;0.50;;;2.10;99.90;;;0.49;83.63;102371.53;4923257;28;20034;-85
2023/01/28 05:37:54;;;;;;;3.45;0.50;;;2.10;99.90;;;0.53;84.22;102365.59;4918833;28;20038;-84
2023/01/28 05:40:20;;;;;;;4.82;0.70;;;2.10;99.90;;;0.56;83.70;102373.44;4903506;28;20121;-84
2023/01/28 05:42:46;;;;;;;3.83;0.65;;;2.10;99.90;;;0.49;83.49;102368.94;4882072;28;20047;-82
2023/01/28 05:45:15;;;;;;;1.20;0.40;;;;;;;0.47;82.54;102369.78;4927429;28;20037;-82
2023/01/28 05:47:44;;;;;;;6.20;0.57;;;;;;;0.46;82.33;102366.31;4938980;28;20037;-85
2023/01/28 05:50:13;;;;;;;0.73;0.20;;;2.10;99.90;;;0.50;81.87;102368.13;4936267;28;20057;-83
2023/01/28 05:52:39;;;;;;;3.83;0.50;;;2.10;99.90;;;0.51;81.93;102372.44;4969001;28;20038;-82
2023/01/28 05:55:12;;;;;;;2.20;0.30;;;2.10;99.90;;;0.54;82.39;102375.13;4918425;28;20030;-82
2023/01/28 05:57:38;;;;;;;6.22;0.60;;;2.20;99.90;;;0.57;82.72;102369.13;4928548;28;20101;-82
2023/01/28 06:00:05;;;;;;;1.95;0.50;;;2.10;99.90;;;0.63;82.67;102370.94;4905921;28;20512;-84
2023/01/28 06:02:31;;;;;;;4.93;0.70;;;2.20;99.90;;;0.63;83.05;102376.13;4862901;28;20045;-84
2023/01/28 06:05:01;;;;;;;2.60;0.35;;;2.20;99.90;;;0.59;82.93;102370.91;4953863;28;20027;-82
2023/01/28 06:07:28;;;;;;;1.02;0.40;;;;;;;0.54;83.14;102369.03;4906189;28;20035;-81
2023/01/28 06:09:55;;;;;;;1.65;0.40;;;2.10;99.90;;;0.50;83.42;102365.53;4912592;28;20503;-84
2023/01/28 06:12:20;;;;;;;2.20;0.55;;;2.10;99.90;;;0.52;82.89;102369.03;4888596;28;20122;-84
2023/01/28 06:14:46;;;;;;;2.83;0.68;;;2.10;99.90;;;0.46;83.02;102363.72;4921697;28;20496;-82
2023/01/28 06:17:19;;;;;;;1.75;0.45;;;2.10;99.90;;;0.46;83.86;102374.09;4950986;28;20042;-85
2023/01/28 06:19:45;;;;;;;3.90;0.68;;;2.10;99.90;;;0.42;83.87;102367.09;4926893;28;20066;-83
2023/01/28 06:22:11;;;;;;;1.15;0.38;;;2.00;99.90;;;0.33;83.78;102367.75;4929332;28;20851;-85
2023/01/28 06:24:37;;;;;;;3.10;0.63;;;2.00;99.90;;;0.33;84.24;102359.97;4895786;28;20058;-83
2023/01/28 06:27:02;;;;;;;3.13;0.60;;;2.00;99.90;;;0.32;84.39;102360.81;4910647;28;20113;-83
2023/01/28 06:29:34;;;;;;;1.83;0.82;;;1.90;99.90;;;0.28;83.87;102364.19;4932948;28;20114;-82
2023/01/28 06:32:00;;;;;;;4.70;1.10;;;1.90;99.90;;;0.26;84.05;102370.16;4902328;28;20034;-82
2023/01/28 06:34:25;;;;;;;5.35;1.10;;;1.90;99.90;;;0.23;84.02;102367.53;4933151;28;20038;-82
2023/01/28 06:36:52;;;;;;;3.50;1.27;;;1.90;99.90;;;0.19;84.27;102364.88;4907014;28;20716;-82
2023/01/28 06:39:25;;;;;;;2.78;1.27;;;1.80;99.90;;;0.18;84.58;102367.41;4912996;28;20088;-88
2023/01/28 06:41:54;;;;;;;2.13;0.70;;;1.80;99.90;;;0.18;84.52;102376.06;4931959;28;20058;-84
2023/01/28 06:44:22;;;;;;;2.65;0.80;;;;;;;0.14;84.63;102376.81;4884717;28;20035;-86
2023/01/28 06:46:53;;;;;;;3.78;0.52;;;;;;;0.14;84.76;102366.47;4949207;28;20053;-84
2023/01/28 06:49:25;;;;;;;3.58;0.75;;;;;;;0.14;84.18;102371.66;4961789;28;20042;-87
2023/01/28 06:52:06;;;;;;;2.03;0.50;;;1.80;99.90;;;0.19;84.64;102376.94;4885196;23;20047;-80
2023/01/28 06:54:58;;;;;;;4.65;1.20;;;1.80;99.90;;;0.22;84.60;102376.13;4856291;28;20559;-80
2023/01/28 06:57:26;;;;;;;1.95;0.75;;;1.90;99.90;;;0.29;84.43;102380.63;4876824;28;20046;-80
2023/01/28 07:00:17;;;;;;;2.47;0.70;;;;;;;0.31;83.63;102376.34;4848806;28;20036;-80
2023/01/28 07:02:46;;;;;;;3.38;0.70;;;1.90;99.90;;;0.31;83.44;102389.31;4851549;28;20450;-79
2023/01/28 07:05:34;;;;;;;2.60;0.57;;;1.90;99.90;;;0.31;83.33;102391.91;4874273;28;20044;-80
2023/01/28 07:08:38;;;;;;;2.92;0.63;;;1.90;99.90;;;0.20;82.66;102379.56;4857213;29;20044;-81
2023/01/28 07:11:17;;;;;;;3.08;0.80;;;1.80;99.90;;;0.17;82.20;102376.91;4888269;23;20047;-81
2023/01/28 07:14:10;;;;;;;4.40;0.63;;;;;;;0.20;82.75;102369.19;4926814;28;20023;-79
2023/01/28 07:16:35;;;;;;;3.70;0.50;;;1.80;99.90;;;0.18;82.17;102370.88;4900610;28;20043;-78
2023/01/28 07:19:30;;;;;;;6.00;0.50;;;1.80;99.90;;;0.21;81.76;102380.44;4866403;28;20044;-80
2023/01/28 07:21:59;;;;;;;1.50;0.47;;;1.80;99.90;;;0.15;81.48;102381.19;4847875;28;20048;-79
2023/01/28 07:24:36;;;;;;;2.92;0.52;;;1.80;99.90;;;0.15;81.53;102388.06;4878295;28;20040;-80
2023/01/28 07:27:13;;;;;;;2.15;0.40;;;1.80;99.90;;;0.10;81.34;102389.69;4847884;29;20035;-80
2023/01/28 07:29:39;;;;;;;1.45;0.43;;;1.70;99.90;;;0.03;81.12;102385.19;4877292;23;20088;-79
2023/01/28 07:32:06;;;;;;;5.05;0.70;;;1.70;99.90;;;0.03;81.04;102386.06;4906615;28;20039;-78
2023/01/28 07:34:41;;;;;;;4.20;0.50;;;1.60;99.90;;;-0.02;80.81;102385.09;4887912;28;20049;-79
2023/01/28 07:37:08;;;;;;;2.22;0.63;;;1.50;99.90;;;-0.07;80.99;102392.72;4900146;28;20134;-80
2023/01/28 07:39:34;;;;;;;3.67;0.50;;;1.50;99.90;;;-0.12;80.77;102393.47;4886715;28;20046;-80
2023/01/28 07:42:06;;;;;;;4.25;0.55;;;1.40;99.90;;;-0.19;80.93;102383.78;4895943;28;20042;-80
2023/01/28 07:44:33;;;;;;;7.75;0.63;;;1.40;99.90;;;-0.23;80.99;102388.91;4910712;28;20089;-80
2023/01/28 07:46:59;;;;;;;1.98;0.60;;;1.30;99.90;;;-0.31;81.33;102403.38;4899626;28;20510;-79
2023/01/28 07:49:24;;;;;;;9.05;0.70;;;1.20;99.90;;;-0.36;81.19;102399.81;4902766;28;20061;-80
2023/01/28 07:51:51;;;;;;;2.83;0.70;;;;;;;-0.40;81.76;102403.16;4911831;28;20547;-80
2023/01/28 07:54:22;;;;;;;1.92;0.38;;;1.10;99.90;;;-0.45;82.36;102399.56;4881199;28;20069;-79
2023/01/28 07:56:48;;;;;;;1.90;0.50;;;1.10;99.90;;;-0.51;81.79;102400.28;4896777;28;20038;-79
2023/01/28 07:59:14;;;;;;;4.85;0.77;;;1.00;99.90;;;-0.56;82.28;102396.72;4856886;29;20043;-79
2023/01/28 08:01:40;;;;;;;1.92;0.93;;;1.00;99.90;;;-0.59;82.08;102401.78;4865368;28;20134;-79
2023/01/28 08:04:05;;;;;;;5.22;0.85;;;1.00;99.90;;;-0.58;82.53;102408.72;4889199;28;20648;-79
2023/01/28 08:06:36;;;;;;;6.25;1.38;;;1.00;99.90;;;-0.55;82.38;102401.03;4906354;28;20039;-79
2023/01/28 08:09:04;;;;;;;10.65;1.55;;;;;;;-0.48;81.97;102413.28;4879178;29;20067;-80
2023/01/28 08:11:31;;;;;;;3.58;1.65;;;1.10;99.90;;;-0.31;81.89;102418.91;4911973;23;20035;-79
2023/01/28 08:13:58;;;;;;;7.93;1.90;;;1.20;99.90;;;-0.13;82.01;102412.44;4868673;28;20070;-79
2023/01/28 08:16:23;;;;;;;7.07;1.90;;;1.40;99.90;;;0.13;81.30;102419.13;4906294;28;20049;-79
2023/01/28 08:18:58;;;;;;;6.70;1.45;;;1.60;99.90;;;0.52;81.14;102430.34;4938744;28;20066;-82
2023/01/28 08:21:37;;;;;;;3.35;0.90;;;;;;;0.82;80.77;102424.94;4938993;28;20046;-82
2023/01/28 08:24:17;;;;;;;8.07;1.10;;;;;;;1.12;79.67;102435.06;4880939;28;20044;-81
2023/01/28 08:26:47;;;;;;;3.92;0.82;;;2.40;99.90;;;1.37;78.97;102435.56;4867687;29;20052;-81
2023/01/28 08:29:21;;;;;;;4.93;0.93;;;2.60;99.90;;;1.50;78.41;102432.34;4869429;28;20035;-81
2023/01/28 08:31:46;;;;;;;3.22;0.93;;;2.80;99.90;;;1.63;77.68;102430.84;4948911;23;20042;-77
2023/01/28 08:34:44;;;;;;;1.38;0.73;;;2.90;99.90;;;1.72;76.87;102437.91;4923740;28;20074;-79
2023/01/28 08:37:22;;;;;;;4.00;0.85;;;;;;;1.80;76.09;102442.38;4957975;28;20049;-80
2023/01/28 08:39:48;;;;;;;3.20;1.08;;;3.10;99.90;;;1.85;75.66;102440.72;4930502;28;20041;-78
2023/01/28 08:42:25;;;;;;;2.30;1.00;;;3.20;99.90;;;2.01;75.80;102446.22;4939736;28;20057;-81
2023/01/28 08:44:55;;;;;;;5.93;1.30;;;3.30;99.90;;;2.12;75.60;102456.78;4957052;28;20045;-80
2023/01/28 08:47:29;;;;;;;4.90;1.00;;;3.40;99.90;;;2.22;75.83;102458.66;4959614;28;20112;-81
2023/01/28 08:49:55;;;;;;;7.82;1.00;;;3.50;99.90;;;2.30;76.19;102464.84;4926123;28;20042;-80
2023/01/28 08:52:48;;;;;;;3.50;0.93;;;3.60;99.90;;;2.35;75.98;102467.50;4888079;28;20166;-80
2023/01/28 08:55:17;;;;;;;7.60;0.80;;;3.70;99.90;;;2.38;76.32;102464.97;4915402;28;20173;-80
2023/01/28 08:57:54;;;;;;;3.88;0.90;;;3.70;99.90;;;2.37;76.73;102474.47;4929603;28;20044;-81
2023/01/28 09:00:20;;;;;;;3.20;1.77;;;3.70;99.90;;;2.43;76.83;102476.31;4917540;28;20042;-80
2023/01/28 09:02:55;;;;;;;4.35;0.93;;;3.80;99.90;;;2.47;76.48;102489.38;4960443;28;20161;-81
2023/01/28 09:05:28;;;;;;;3.57;1.17;;;;;;;2.41;75.52;102489.28;4879206;28;20039;-81
2023/01/28 09:08:15;;;;;;;5.47;1.80;;;3.90;99.90;;;2.42;75.43;102496.25;4902510;28;20175;-79
2023/01/28 09:13:49;;;;;;;;;;;;;;;;;;;;;
2023/01/28 09:19:46;;;;;;;6.90;0.95;;;;;;;2.52;74.78;102505.03;4873510;28;20047;-81
2023/01/28 09:22:57;;;;;;;;;;;;;;;;;;;;;
2023/01/28 09:29:17;;;;;;;;;;;;;;;;;;;;;
2023/01/28 09:31:59;;;;;;;;;;;;;;;;;;;;;
2023/01/28 09:34:28;;;;;;;2.72;1.15;;;;;;;2.51;73.78;102503.31;4878746;28;19924;-81
2023/01/28 09:41:05;;;;;;;2.92;1.17;;;;;;;2.54;74.04;102499.88;4895781;28;20087;-80
2023/01/28 09:51:11;;;;;;;;;;;;;;;;;;;;;
2023/01/28 09:54:48;;;;;;;8.70;1.00;;;4.00;99.90;;;2.52;73.54;102492.03;4842056;28;20528;-81
2023/01/28 10:01:57;;;;;;;7.68;1.60;;;4.10;99.90;;;2.75;73.09;102504.53;4868924;28;20111;-82
2023/01/28 10:05:45;;;;;;;;;;;;;;;;;;;;;
2023/01/28 10:08:36;;;;;;;3.72;1.10;;;;;;;2.77;72.08;102503.69;4855274;29;21243;-82
2023/01/28 10:12:06;;;;;;;5.70;1.50;;;4.20;99.90;;;2.82;72.76;102503.75;4824458;29;20040;-83
2023/01/28 10:19:18;;;;;;;4.72;1.33;;;4.40;99.90;;;3.03;72.45;102498.84;4768167;29;20104;-83
2023/01/28 10:22:57;;;;;;;4.93;1.42;;;4.40;99.90;;;3.10;72.88;102498.91;4757538;29;20066;-85
2023/01/28 10:29:08;;;;;;;7.20;1.30;;;;;;;3.03;71.49;102495.38;4863959;29;20478;-82
2023/01/28 10:41:58;;;;;;;3.83;1.60;;;;;;;2.74;70.91;102482.81;4806192;29;20148;-83
2023/01/28 10:45:37;;;;;;;6.32;1.40;;;4.30;99.90;;;2.63;72.33;102474.84;4861274;29;20457;-84
2023/01/28 10:52:02;;;;;;;;;;;;;;;;;;;;;
2023/01/28 10:54:28;;;;;;;5.17;1.93;;;4.10;99.90;;;2.66;73.61;102480.13;4833134;29;20071;-81
2023/01/28 10:57:38;;;;;;;4.80;1.67;;;;;;;2.70;73.45;102460.25;4827219;28;20036;-82
2023/01/28 11:01:24;;;;;;;8.15;2.20;;;4.30;99.90;;;2.98;74.21;102471.88;4910728;28;20041;-81
2023/01/28 11:05:11;;;;;;;4.13;1.90;;;;;;;2.92;73.53;102464.00;4870578;29;20043;-81
2023/01/28 11:08:15;;;;;;;;;;;;;;;;;;;;;
2023/01/28 11:10:57;;;;;;;4.38;2.08;;;4.60;99.90;;;3.22;74.07;102460.91;4854993;29;20097;-82
2023/01/28 11:13:57;;;;;;;5.80;2.30;;;4.70;99.90;;;3.44;74.00;102450.72;4792044;29;20041;-81
2023/01/28 11:17:38;;;;;;;7.20;2.08;;;4.90;99.90;;;3.76;73.34;102448.44;4825656;29;20048;-81
2023/01/28 11:24:48;;;;;;;5.07;2.20;;;5.20;99.90;;;3.98;71.09;102419.94;4776268;29;20120;-82
2023/01/28 11:27:30;;;;;;;6.38;1.88;;;5.30;99.90;;;3.86;70.88;102413.75;4740547;29;20536;-81
2023/01/28 11:30:09;;;;;;;4.30;1.85;;;5.30;99.90;;;3.87;70.96;102407.69;4736764;29;20039;-79
2023/01/28 11:33:06;;;;;;;5.07;1.70;;;;;;;3.87;70.50;102406.84;4735491;29;20045;-81
2023/01/28 11:36:14;;;;;;;7.00;1.35;;;;;;;3.93;70.52;102403.38;4792517;29;20136;-81
2023/01/28 11:39:32;;;;;;;6.65;2.03;;;5.40;99.90;;;4.09;70.73;102405.25;4788981;29;20153;-81
2023/01/28 11:42:57;;;;;;;8.70;1.90;;;5.40;99.90;;;4.19;70.39;102388.81;4815211;29;20044;-81
2023/01/28 11:50:23;;;;;;;;;;;;;;;;;;;;;
2023/01/28 11:53:19;;;;;;;8.10;2.10;;;;;;;4.22;71.67;102385.34;4805424;29;20686;-80
2023/01/28 11:56:36;;;;;;;11.60;2.05;;;5.60;99.90;;;4.25;71.81;102385.38;4804791;29;20060;-82
2023/01/28 12:00:17;;;;;;;3.92;1.70;;;5.60;99.90;;;4.22;71.31;102367.09;4811444;29;20042;-81
2023/01/28 12:03:30;;;;;;;4.38;1.70;;;;;;;4.31;71.40;102365.41;4788257;29;20045;-82
2023/01/28 12:06:57;;;;;;;7.60;2.30;;;;;;;4.29;70.31;102343.66;4819593;29;20056;-81
2023/01/28 12:10:15;;;;;;;3.28;2.20;;;;;;;4.25;70.52;102341.91;4856099;29;20041;-82
2023/01/28 12:13:22;;;;;;;;;;;;;;;;;;;;;
2023/01/28 12:16:48;;;;;;;4.30;1.73;;;5.60;99.90;;;4.05;70.46;102307.03;4863573;29;21477;-81
2023/01/28 12:19:49;;;;;;;5.43;1.90;;;;;;;3.84;71.11;102300.81;4807680;29;20038;-81
2023/01/28 12:23:17;;;;;;;4.95;1.95;;;5.30;99.90;;;3.67;71.50;102302.44;4767190;29;20048;-81
2023/01/28 12:33:49;;;;;;;;;;;;;;;;;;;;;
2023/01/28 12:40:06;;;;;;;7.30;3.30;;;;;;;3.24;74.19;102307.28;4800446;29;20055;-81
2023/01/28 12:43:35;;;;;;;10.40;3.45;;;4.70;99.90;;;3.15;74.16;102300.28;4846609;29;20048;-82
2023/01/28 12:54:48;;;;;;;10.57;4.00;;;4.40;99.90;;;2.84;75.97;102312.97;4782912;29;20554;-82
2023/01/28 12:57:48;;;;;;;6.88;3.40;;;4.30;99.90;;;2.75;75.49;102312.03;4803152;29;20197;-82
2023/01/28 13:01:16;;;;;;;9.88;4.13;;;4.30;99.90;;;2.62;76.78;102314.47;4764107;29;20046;-82
2023/01/28 13:08:06;;;;;;;;;;;;;;;;;;;;;
2023/01/28 13:11:08;;;;;;;4.40;2.20;;;;;;;2.50;77.18;102301.31;4872261;28;21476;-82
2023/01/28 13:13:59;;;;;;;8.05;2.97;;;;;;;2.55;76.33;102299.66;4875662;28;20037;-82
2023/01/28 13:17:09;;;;;;;8.25;2.50;;;;;;;2.49;75.84;102289.19;4828951;28;20098;-82
2023/01/28 13:20:49;;;;;;;;;;;;;;;;;;;;;
2023/01/28 13:23:49;;;;;;;4.60;2.50;;;3.90;99.90;;;2.25;75.18;102275.03;4826334;29;21509;-82
2023/01/28 13:26:49;;;;;;;6.53;2.60;;;3.80;99.90;;;2.24;76.17;102277.59;4855945;29;20044;-82
2023/01/28 13:33:11;;;;;;;;;;;;;;;;;;;;;
2023/01/28 13:35:49;;;;;;;;;;;;;;;;;;;;;
2023/01/28 13:38:30;;;;;;;;;;;;;;;;;;;;;
2023/01/28 13:45:39;;;;;;;;;;;;;;;;;;;;;
2023/01/28 13:52:58;;;;;;;8.30;3.00;;;4.00;99.90;;;2.53;76.07;102295.28;4977234;23;20053;-81
2023/01/28 13:56:39;;;;;;;7.90;3.22;;;4.00;99.90;;;2.55;76.02;102288.38;4895320;28;20035;-83
2023/01/28 14:03:49;;;;;;;7.55;3.67;;;3.90;99.90;;;2.32;76.00;102282.91;4822837;28;20069;-84
2023/01/28 14:12:57;;;;;;;7.22;2.90;;;3.50;99.90;;;1.81;77.11;102280.53;4937279;28;20086;-84
2023/01/28 14:16:52;;;;;;;11.32;3.17;;;3.40;99.90;;;1.57;77.29;102295.72;4954048;28;20037;-83
2023/01/28 14:19:51;;;;;;;;;;;;;;;;;;;;;